createdAt,value
2019-03-29T00:01:54.360Z,13.50
2019-03-29T00:04:24.385Z,13.73
2019-03-29T00:06:54.506Z,14.50
2019-03-29T00:09:24.666Z,15.13
2019-03-29T00:11:54.838Z,15.37
2019-03-29T00:14:24.963Z,14.87
2019-03-29T00:16:54.943Z,17.17
2019-03-29T00:19:24.918Z,20.63
2019-03-29T00:21:54.910Z,18.97
2019-03-29T00:24:24.937Z,19.53
2019-03-29T00:26:54.870Z,17.10
2019-03-29T00:29:24.894Z,17.60
2019-03-29T00:31:55.087Z,18.47
2019-03-29T00:34:25.077Z,18.67
2019-03-29T00:36:55.109Z,17.23
2019-03-29T00:39:25.129Z,22.10
2019-03-29T00:41:55.111Z,18.77
2019-03-29T00:44:25.099Z,19.03
2019-03-29T00:46:55.088Z,21.33
2019-03-29T00:49:26.468Z,21.93
2019-03-29T00:51:56.687Z,24.80
2019-03-29T00:54:28.023Z,20.77
2019-03-29T00:56:58.217Z,22.60
2019-03-29T00:59:28.175Z,22.33
2019-03-29T01:01:58.253Z,23.07
2019-03-29T01:04:28.988Z,22.83
2019-03-29T01:06:59.109Z,26.97
2019-03-29T01:09:29.068Z,23.80
2019-03-29T01:11:59.094Z,20.97
2019-03-29T01:14:29.371Z,23.67
2019-03-29T01:16:59.469Z,21.63
2019-03-29T01:19:29.879Z,24.50
2019-03-29T01:22:00.034Z,22.73
2019-03-29T01:24:30.088Z,25.17
2019-03-29T01:27:00.138Z,23.57
2019-03-29T01:29:30.944Z,27.03
2019-03-29T01:32:01.106Z,25.33
2019-03-29T01:34:31.068Z,25.07
2019-03-29T01:37:01.028Z,22.47
2019-03-29T01:39:31.008Z,25.20
2019-03-29T01:42:00.966Z,27.40
2019-03-29T01:44:30.942Z,28.33
2019-03-29T01:47:00.889Z,24.70
2019-03-29T01:49:30.849Z,29.27
2019-03-29T01:52:00.827Z,27.80
2019-03-29T01:54:31.022Z,26.90
2019-03-29T01:57:01.030Z,24.13
2019-03-29T01:59:30.975Z,27.53
2019-03-29T02:02:01.008Z,32.23
2019-03-29T02:04:31.045Z,25.57
2019-03-29T02:07:00.997Z,32.60
2019-03-29T02:09:31.053Z,33.23
2019-03-29T02:12:01.475Z,25.57
2019-03-29T02:14:31.462Z,28.33
2019-03-29T02:17:01.512Z,31.77
2019-03-29T02:19:31.972Z,29.93
2019-03-29T02:22:02.263Z,28.77
2019-03-29T02:24:32.317Z,31.37
2019-03-29T02:27:02.265Z,31.67
2019-03-29T02:29:32.247Z,29.63
2019-03-29T02:32:02.282Z,33.13
2019-03-29T02:34:32.255Z,36.00
2019-03-29T02:37:02.721Z,31.33
2019-03-29T02:39:32.863Z,36.03
2019-03-29T02:42:02.886Z,32.33
2019-03-29T02:44:51.883Z,31.23
2019-03-29T02:47:22.059Z,30.37
2019-03-29T02:49:52.480Z,33.07
2019-03-29T02:52:22.733Z,28.10
2019-03-29T02:54:53.059Z,28.27
2019-03-29T02:57:23.304Z,30.87
2019-03-29T02:59:53.574Z,33.57
2019-03-29T03:02:26.241Z,31.17
2019-03-29T03:04:56.142Z,29.63
2019-03-29T03:07:26.370Z,29.97
2019-03-29T03:09:56.806Z,26.13
2019-03-29T03:12:27.102Z,26.40
2019-03-29T03:14:57.402Z,26.23
2019-03-29T03:17:27.741Z,29.90
2019-03-29T03:19:58.289Z,26.00
2019-03-29T03:22:28.678Z,26.97
2019-03-29T03:24:58.917Z,25.20
2019-03-29T03:27:29.087Z,27.13
2019-03-29T03:29:59.109Z,25.57
2019-03-29T03:32:29.127Z,25.70
2019-03-29T03:34:59.158Z,28.33
2019-03-29T03:37:29.165Z,25.97
2019-03-29T03:39:59.208Z,29.03
2019-03-29T03:42:29.280Z,25.70
2019-03-29T03:44:59.244Z,26.73
2019-03-29T03:47:29.281Z,28.37
2019-03-29T03:50:01.167Z,29.50
2019-03-29T03:52:31.159Z,26.77
2019-03-29T03:55:01.582Z,29.60
2019-03-29T03:57:32.431Z,28.47
2019-03-29T04:00:03.700Z,32.37
2019-03-29T04:02:33.652Z,29.90
2019-03-29T04:05:03.674Z,26.37
2019-03-29T04:07:33.718Z,28.00
2019-03-29T04:10:04.155Z,29.73
2019-03-29T04:12:34.198Z,24.50
2019-03-29T04:15:04.394Z,29.40
2019-03-29T04:17:34.463Z,30.17
2019-03-29T04:20:04.986Z,36.73
2019-03-29T04:22:34.985Z,31.30
2019-03-29T04:25:05.996Z,30.50
2019-03-29T04:27:35.968Z,27.43
2019-03-29T04:30:06.755Z,32.70
2019-03-29T04:32:36.716Z,34.03
2019-03-29T04:35:06.834Z,35.07
2019-03-29T04:37:36.852Z,41.50
2019-03-29T04:40:08.823Z,36.77
2019-03-29T04:42:38.718Z,36.70
2019-03-29T04:45:08.923Z,37.47
2019-03-29T04:47:38.905Z,36.03
2019-03-29T04:50:09.284Z,36.67
2019-03-29T04:52:39.247Z,40.57
2019-03-29T04:55:09.375Z,41.80
2019-03-29T04:57:39.332Z,42.33
2019-03-29T05:00:10.068Z,37.73
2019-03-29T05:02:40.035Z,40.87
2019-03-29T05:05:10.235Z,45.47
2019-03-29T05:07:41.295Z,44.30
2019-03-29T05:10:42.521Z,46.10
2019-03-29T05:12:43.215Z,44.93
2019-03-29T05:15:13.499Z,42.93
2019-03-29T05:17:43.493Z,43.27
2019-03-29T05:20:13.591Z,41.63
2019-03-29T05:22:43.705Z,43.70
2019-03-29T05:25:14.460Z,44.47
2019-03-29T05:27:44.557Z,48.30
2019-03-29T05:30:14.915Z,46.20
2019-03-29T05:32:44.893Z,41.87
2019-03-29T05:35:14.843Z,44.83
2019-03-29T05:37:44.827Z,40.13
2019-03-29T05:40:14.853Z,49.03
2019-03-29T05:42:44.933Z,51.87
2019-03-29T05:45:15.203Z,42.97
2019-03-29T05:47:45.240Z,49.00
2019-03-29T05:50:15.649Z,47.80
2019-03-29T05:52:45.647Z,49.33
2019-03-29T05:55:15.634Z,43.20
2019-03-29T05:57:45.698Z,49.77
2019-03-29T06:00:18.429Z,44.63
2019-03-29T06:02:48.494Z,52.87
2019-03-29T06:05:18.522Z,45.33
2019-03-29T06:07:48.555Z,45.87
2019-03-29T06:10:18.654Z,42.67
2019-03-29T06:12:48.752Z,45.93
2019-03-29T06:15:18.715Z,52.57
2019-03-29T06:17:49.262Z,45.70
2019-03-29T06:20:19.520Z,52.57
2019-03-29T06:22:49.607Z,49.53
2019-03-29T06:25:19.746Z,54.50
2019-03-29T06:27:52.762Z,50.57
2019-03-29T06:30:30.663Z,52.83
2019-03-29T06:33:00.931Z,50.83
2019-03-29T06:35:36.786Z,48.03
2019-03-29T06:38:08.938Z,50.97
2019-03-29T06:40:38.990Z,54.23
2019-03-29T06:43:08.976Z,42.80
2019-03-29T06:45:47.968Z,49.40
2019-03-29T06:48:10.783Z,45.63
2019-03-29T06:50:40.817Z,44.23
2019-03-29T06:53:10.823Z,43.90
2019-03-29T06:55:41.040Z,44.53
2019-03-29T06:58:11.089Z,48.47
2019-03-29T07:00:41.106Z,40.37
2019-03-29T07:03:11.113Z,43.93
2019-03-29T07:05:41.103Z,38.93
2019-03-29T07:08:11.231Z,38.40
2019-03-29T07:10:41.302Z,43.60
2019-03-29T07:13:11.347Z,46.33
2019-03-29T07:15:41.557Z,40.37
2019-03-29T07:18:11.613Z,43.30
2019-03-29T07:20:42.001Z,41.93
2019-03-29T07:23:12.078Z,45.10
2019-03-29T07:25:42.049Z,46.30
2019-03-29T07:28:12.226Z,45.17
2019-03-29T07:30:42.247Z,46.97
2019-03-29T07:33:12.439Z,48.70
2019-03-29T07:35:42.403Z,46.77
2019-03-29T07:38:12.572Z,46.67
2019-03-29T07:40:42.942Z,45.93
2019-03-29T07:43:13.118Z,44.33
2019-03-29T07:45:43.182Z,45.03
2019-03-29T07:48:13.216Z,44.20
2019-03-29T07:50:43.272Z,46.20
2019-03-29T07:53:13.250Z,46.17
2019-03-29T07:55:43.253Z,44.17
2019-03-29T07:58:13.292Z,48.53
2019-03-29T08:00:43.330Z,41.40
2019-03-29T08:03:13.340Z,41.40
2019-03-29T08:05:43.368Z,44.30
2019-03-29T08:08:24.089Z,41.47
2019-03-29T08:10:45.304Z,44.50
2019-03-29T08:13:16.065Z,36.67
2019-03-29T08:15:46.536Z,44.53
2019-03-29T08:18:16.710Z,40.00
2019-03-29T08:20:46.742Z,44.80
2019-03-29T08:23:16.874Z,38.90
2019-03-29T08:25:46.847Z,39.37
2019-03-29T08:28:16.945Z,37.20
2019-03-29T08:30:46.945Z,35.87
2019-03-29T08:33:17.121Z,40.17
2019-03-29T08:35:47.132Z,35.40
2019-03-29T08:38:17.265Z,40.07
2019-03-29T08:40:47.360Z,44.00
2019-03-29T08:43:17.485Z,42.00
2019-03-29T08:45:47.601Z,42.23
2019-03-29T08:48:17.713Z,40.33
2019-03-29T08:50:47.813Z,40.00
2019-03-29T08:53:17.853Z,40.23
2019-03-29T08:55:47.833Z,41.20
2019-03-29T08:58:17.813Z,37.80
2019-03-29T09:00:47.924Z,39.50
2019-03-29T09:03:18.213Z,36.33
2019-03-29T09:05:48.266Z,38.70
2019-03-29T09:08:18.423Z,39.60
2019-03-29T09:10:48.404Z,38.37
2019-03-29T09:13:18.673Z,34.30
2019-03-29T09:15:48.642Z,37.47
2019-03-29T09:18:18.732Z,36.43
2019-03-29T09:20:48.729Z,36.50
2019-03-29T09:23:18.782Z,31.83
2019-03-29T09:25:48.904Z,32.83
2019-03-29T09:28:19.012Z,34.80
2019-03-29T09:30:49.194Z,32.63
2019-03-29T09:33:19.598Z,33.53
2019-03-29T09:35:49.708Z,33.40
2019-03-29T09:38:19.898Z,33.30
2019-03-29T09:40:58.359Z,32.20
2019-03-29T09:43:21.635Z,31.80
2019-03-29T09:45:51.843Z,33.63
2019-03-29T09:48:22.139Z,25.57
2019-03-29T09:50:52.140Z,27.47
2019-03-29T09:53:22.135Z,32.20
2019-03-29T09:55:53.476Z,36.37
2019-03-29T09:58:23.802Z,29.20
2019-03-29T10:00:54.139Z,27.60
2019-03-29T10:03:24.305Z,32.53
2019-03-29T10:05:54.369Z,31.87
2019-03-29T10:08:24.455Z,28.87
2019-03-29T10:10:54.491Z,29.67
2019-03-29T10:13:24.487Z,34.53
2019-03-29T10:15:54.661Z,34.30
2019-03-29T10:18:24.842Z,27.53
2019-03-29T10:20:54.869Z,28.20
2019-03-29T10:23:25.117Z,22.90
2019-03-29T10:25:58.403Z,27.87
2019-03-29T10:28:26.938Z,31.20
2019-03-29T10:30:57.033Z,27.43
2019-03-29T10:33:27.152Z,25.73
2019-03-29T10:35:57.225Z,22.97
2019-03-29T10:38:27.196Z,27.67
2019-03-29T10:40:57.477Z,24.67
2019-03-29T10:43:27.437Z,21.23
2019-03-29T10:45:57.537Z,21.03
2019-03-29T10:48:27.635Z,22.07
2019-03-29T10:50:57.649Z,23.03
2019-03-29T10:53:28.971Z,26.87
2019-03-29T10:55:59.226Z,20.27
2019-03-29T10:58:29.176Z,22.60
2019-03-29T11:00:59.219Z,19.80
2019-03-29T11:03:29.408Z,15.63
2019-03-29T11:05:59.499Z,18.17
2019-03-29T11:08:29.784Z,17.10
2019-03-29T11:10:59.872Z,17.43
2019-03-29T11:13:29.889Z,11.87
2019-03-29T11:15:59.875Z,18.43
2019-03-29T11:18:29.822Z,11.73
2019-03-29T11:21:00.106Z,12.33
2019-03-29T11:23:30.062Z,12.60
2019-03-29T11:26:00.046Z,13.33
2019-03-29T11:28:30.088Z,12.27
2019-03-29T11:31:00.066Z,9.93
2019-03-29T11:33:30.143Z,9.27
2019-03-29T11:36:00.394Z,12.60
2019-03-29T11:38:30.401Z,11.30
2019-03-29T11:41:00.423Z,11.23
2019-03-29T11:43:30.414Z,12.80
2019-03-29T11:46:01.224Z,7.47
2019-03-29T11:48:31.159Z,6.73
2019-03-29T11:51:01.253Z,5.43
2019-03-29T11:53:31.235Z,6.97
2019-03-29T11:56:01.544Z,6.57
2019-03-29T11:58:31.510Z,4.10
2019-03-29T12:01:01.748Z,4.33
2019-03-29T12:03:31.751Z,5.63
2019-03-29T12:06:03.355Z,4.40
2019-03-29T12:08:33.411Z,3.87
2019-03-29T12:11:03.700Z,5.23
2019-03-29T12:13:40.901Z,4.57
2019-03-29T12:16:06.030Z,4.43
2019-03-29T12:18:36.131Z,4.80
2019-03-29T12:21:06.265Z,3.43
2019-03-29T12:23:36.212Z,5.13
2019-03-29T12:26:06.257Z,6.63
2019-03-29T12:28:36.272Z,8.30
2019-03-29T12:31:06.244Z,4.77
2019-03-29T12:33:36.186Z,6.10
2019-03-29T12:36:06.207Z,4.57
2019-03-29T12:38:36.242Z,7.10
2019-03-29T12:41:06.395Z,4.20
2019-03-29T12:43:36.357Z,4.23
2019-03-29T12:46:06.381Z,4.13
2019-03-29T12:48:36.402Z,4.30
2019-03-29T12:51:06.394Z,4.63
2019-03-29T12:53:36.510Z,6.50
2019-03-29T12:56:06.570Z,4.63
2019-03-29T12:58:36.546Z,5.73
2019-03-29T13:01:06.707Z,4.10
2019-03-29T13:03:36.684Z,4.07
2019-03-29T13:06:06.925Z,6.10
2019-03-29T13:08:37.005Z,3.57
2019-03-29T13:11:07.062Z,4.23
2019-03-29T13:13:37.019Z,4.90
2019-03-29T13:16:07.090Z,3.80
2019-03-29T13:18:37.114Z,4.60
2019-03-29T13:21:07.078Z,5.43
2019-03-29T13:23:37.075Z,5.47
2019-03-29T13:26:07.162Z,4.97
2019-03-29T13:28:37.146Z,3.97
2019-03-29T13:31:07.187Z,5.77
2019-03-29T13:33:37.229Z,3.30
2019-03-29T13:36:07.679Z,4.33
2019-03-29T13:38:37.643Z,3.73
2019-03-29T13:41:07.760Z,3.90
2019-03-29T13:43:37.890Z,6.10
2019-03-29T13:46:08.019Z,5.17
2019-03-29T13:48:37.975Z,6.80
2019-03-29T13:51:08.037Z,8.60
2019-03-29T13:53:38.059Z,7.37
2019-03-29T13:56:08.125Z,7.90
2019-03-29T13:58:38.135Z,6.30
2019-03-29T14:01:08.324Z,6.60
2019-03-29T14:03:38.328Z,6.40
2019-03-29T14:06:08.457Z,7.63
2019-03-29T14:08:38.449Z,7.93
2019-03-29T14:11:08.596Z,8.90
2019-03-29T14:13:38.618Z,6.80
2019-03-29T14:16:08.691Z,5.90
2019-03-29T14:18:38.729Z,6.47
2019-03-29T14:21:08.839Z,6.53
2019-03-29T14:23:38.823Z,8.43
2019-03-29T14:26:08.881Z,6.07
2019-03-29T14:28:38.921Z,8.00
2019-03-29T14:31:09.117Z,6.87
2019-03-29T14:33:39.184Z,6.87
2019-03-29T14:36:09.214Z,7.17
2019-03-29T14:38:39.178Z,7.80
2019-03-29T14:41:09.311Z,6.23
2019-03-29T14:43:39.240Z,7.17
2019-03-29T14:46:09.221Z,6.73
2019-03-29T14:48:39.280Z,6.77
2019-03-29T14:51:09.310Z,5.50
2019-03-29T14:53:39.406Z,7.47
2019-03-29T14:56:09.496Z,6.47
2019-03-29T14:58:39.601Z,9.20
2019-03-29T15:01:09.853Z,8.53
2019-03-29T15:03:43.042Z,7.00
2019-03-29T15:06:13.124Z,9.47
2019-03-29T15:08:43.600Z,9.47
2019-03-29T15:11:22.039Z,6.33
2019-03-29T15:13:45.374Z,7.57
2019-03-29T15:16:15.423Z,8.07
2019-03-29T15:18:45.392Z,7.60
2019-03-29T15:21:15.442Z,10.83
2019-03-29T15:23:45.432Z,11.00
2019-03-29T15:26:15.390Z,8.50
2019-03-29T15:28:45.378Z,7.93
2019-03-29T15:31:15.323Z,8.67
2019-03-29T15:33:45.363Z,7.50
2019-03-29T15:36:15.460Z,8.50
2019-03-29T15:38:45.427Z,6.83
2019-03-29T15:41:15.522Z,8.70
2019-03-29T15:43:45.505Z,9.77
2019-03-29T15:46:15.520Z,10.87
2019-03-29T15:48:45.520Z,8.20
2019-03-29T15:51:15.510Z,11.20
2019-03-29T15:53:45.505Z,8.70
2019-03-29T15:56:15.547Z,11.63
2019-03-29T15:58:45.557Z,8.00
2019-03-29T16:01:15.524Z,8.07
2019-03-29T16:03:45.570Z,8.70
2019-03-29T16:06:15.580Z,7.87
2019-03-29T16:08:45.684Z,8.43
2019-03-29T16:11:18.600Z,7.53
2019-03-29T16:13:47.322Z,7.80
2019-03-29T16:16:17.514Z,8.07
2019-03-29T16:18:47.657Z,7.67
2019-03-29T16:21:17.708Z,7.37
2019-03-29T16:23:47.820Z,6.47
2019-03-29T16:26:17.771Z,7.60
2019-03-29T16:28:47.804Z,8.40
2019-03-29T16:31:17.779Z,6.40
2019-03-29T16:33:47.962Z,7.10
2019-03-29T16:36:17.978Z,7.20
2019-03-29T16:38:47.935Z,8.97
2019-03-29T16:41:17.906Z,9.40
2019-03-29T16:43:47.910Z,7.83
2019-03-29T16:46:17.908Z,6.97
2019-03-29T16:48:47.975Z,7.50
2019-03-29T16:51:17.981Z,7.50
2019-03-29T16:53:48.035Z,7.33
2019-03-29T16:56:18.071Z,6.77
2019-03-29T16:58:48.064Z,6.80
2019-03-29T17:01:18.045Z,6.70
2019-03-29T17:03:48.193Z,7.57
2019-03-29T17:06:18.131Z,6.23
2019-03-29T17:08:48.148Z,7.47
2019-03-29T17:11:18.193Z,6.90
2019-03-29T17:13:48.217Z,8.93
2019-03-29T17:16:29.665Z,7.27
2019-03-29T17:18:49.825Z,8.43
2019-03-29T17:21:19.962Z,9.97
2019-03-29T17:23:52.708Z,7.63
2019-03-29T17:26:21.803Z,9.13
2019-03-29T17:28:51.844Z,7.33
2019-03-29T17:31:21.812Z,6.07
2019-03-29T17:33:51.792Z,8.07
2019-03-29T17:36:21.805Z,7.67
2019-03-29T17:38:52.026Z,12.97
2019-03-29T17:41:22.156Z,8.73
2019-03-29T17:43:52.138Z,10.87
2019-03-29T17:46:22.189Z,11.83
2019-03-29T17:48:52.239Z,10.27
2019-03-29T17:51:22.298Z,11.37
2019-03-29T17:53:52.280Z,8.97
2019-03-29T17:56:22.394Z,8.80
2019-03-29T17:58:52.428Z,8.33
2019-03-29T18:01:22.462Z,9.80
2019-03-29T18:03:52.434Z,9.03
2019-03-29T18:06:22.492Z,8.80
2019-03-29T18:08:52.500Z,7.77
2019-03-29T18:11:22.584Z,8.17
2019-03-29T18:13:52.563Z,9.07
2019-03-29T18:16:30.649Z,10.20
2019-03-29T18:18:54.207Z,12.30
2019-03-29T18:21:24.341Z,8.93
2019-03-29T18:23:54.295Z,9.97
2019-03-29T18:26:24.410Z,8.57
2019-03-29T18:28:54.639Z,8.10
2019-03-29T18:31:24.644Z,9.30
2019-03-29T18:33:54.721Z,9.90
2019-03-29T18:36:24.729Z,8.57
2019-03-29T18:38:55.074Z,9.57
2019-03-29T18:41:25.027Z,8.97
2019-03-29T18:43:55.289Z,12.67
2019-03-29T18:46:25.233Z,13.47
2019-03-29T18:48:55.410Z,9.53
2019-03-29T18:51:25.448Z,8.77
2019-03-29T18:53:55.601Z,10.20
2019-03-29T18:56:25.687Z,11.13
2019-03-29T18:58:55.671Z,12.07
2019-03-29T19:01:25.623Z,12.53
2019-03-29T19:03:55.819Z,10.67
2019-03-29T19:06:25.872Z,15.67
2019-03-29T19:08:56.037Z,14.97
2019-03-29T19:11:26.160Z,14.00
2019-03-29T19:13:56.254Z,13.43
2019-03-29T19:16:26.414Z,12.40
2019-03-29T19:19:09.410Z,14.70
2019-03-29T19:21:28.419Z,15.53
2019-03-29T19:24:17.792Z,16.77
2019-03-29T19:26:47.984Z,16.30
2019-03-29T19:29:18.226Z,20.97
2019-03-29T19:31:48.332Z,19.43
2019-03-29T19:34:18.449Z,22.77
2019-03-29T19:36:48.508Z,37.53
2019-03-29T19:39:18.584Z,23.90
2019-03-29T19:41:48.858Z,17.70
2019-03-29T19:44:19.097Z,16.90
2019-03-29T19:46:49.118Z,14.20
2019-03-29T19:49:19.535Z,18.00
2019-03-29T19:51:49.625Z,12.30
2019-03-29T19:54:19.792Z,14.50
2019-03-29T19:56:50.178Z,13.80
2019-03-29T19:59:20.270Z,14.03
2019-03-29T20:01:50.548Z,14.87
2019-03-29T20:04:21.058Z,14.40
2019-03-29T20:06:51.207Z,11.23
2019-03-29T20:09:21.388Z,12.43
2019-03-29T20:11:51.530Z,10.50
2019-03-29T20:14:21.697Z,9.10
2019-03-29T20:16:55.054Z,9.03
2019-03-29T20:19:24.181Z,8.23
2019-03-29T20:21:54.444Z,7.60
2019-03-29T20:24:24.732Z,9.03
2019-03-29T20:26:54.954Z,10.77
2019-03-29T20:29:25.035Z,9.77
2019-03-29T20:31:55.473Z,10.53
2019-03-29T20:34:25.515Z,13.33
2019-03-29T20:36:57.083Z,13.60
2019-03-29T20:39:27.173Z,13.50
2019-03-29T20:41:57.371Z,16.67
2019-03-29T20:44:27.537Z,19.30
2019-03-29T20:46:57.867Z,14.07
2019-03-29T20:49:27.903Z,16.73
2019-03-29T20:51:58.569Z,21.17
2019-03-29T20:54:28.707Z,19.20
2019-03-29T20:56:58.847Z,18.93
2019-03-29T20:59:29.620Z,18.63
2019-03-29T21:02:02.658Z,19.27
2019-03-29T21:04:34.044Z,21.97
2019-03-29T21:07:04.054Z,18.03
2019-03-29T21:09:34.274Z,19.83
2019-03-29T21:12:04.732Z,20.33
2019-03-29T21:14:34.920Z,21.00
2019-03-29T21:17:05.215Z,22.77
2019-03-29T21:19:35.309Z,18.13
2019-03-29T21:22:05.349Z,19.33
2019-03-29T21:24:35.568Z,20.23
2019-03-29T21:27:05.914Z,17.93
2019-03-29T21:29:36.045Z,16.87
2019-03-29T21:32:06.182Z,18.20
2019-03-29T21:34:36.338Z,17.93
2019-03-29T21:37:06.604Z,18.70
2019-03-29T21:39:36.744Z,16.10
2019-03-29T21:42:07.065Z,20.57
2019-03-29T21:44:37.309Z,16.77
2019-03-29T21:47:07.448Z,20.17
2019-03-29T21:49:37.479Z,19.83
2019-03-29T21:52:07.564Z,17.40
2019-03-29T21:54:37.734Z,20.00
2019-03-29T21:57:07.740Z,19.07
2019-03-29T21:59:37.898Z,19.50
2019-03-29T22:02:08.119Z,17.83
2019-03-29T22:04:38.286Z,16.93
2019-03-29T22:07:08.326Z,15.70
2019-03-29T22:09:38.338Z,16.17
2019-03-29T22:12:08.355Z,18.80
2019-03-29T22:14:38.439Z,15.30
2019-03-29T22:17:08.497Z,17.70
2019-03-29T22:19:38.537Z,17.23
2019-03-29T22:22:08.595Z,17.43
2019-03-29T22:24:39.159Z,17.57
2019-03-29T22:27:09.513Z,15.60
2019-03-29T22:29:39.691Z,14.87
2019-03-29T22:32:09.701Z,20.60
2019-03-29T22:34:40.720Z,43.97
2019-03-29T22:37:10.868Z,77.53
2019-03-29T22:39:40.892Z,20.77
2019-03-29T22:42:11.131Z,17.47
2019-03-29T22:44:41.147Z,17.33
2019-03-29T22:47:11.171Z,20.40
2019-03-29T22:49:41.178Z,15.70
2019-03-29T22:52:11.208Z,17.20
2019-03-29T22:54:41.368Z,14.57
2019-03-29T22:57:11.402Z,14.50
2019-03-29T22:59:41.492Z,13.23
2019-03-29T23:02:11.784Z,15.57
2019-03-29T23:04:41.828Z,15.90
2019-03-29T23:07:11.986Z,16.73
2019-03-29T23:09:42.037Z,15.67
2019-03-29T23:12:12.036Z,14.40
2019-03-29T23:14:42.120Z,14.60
2019-03-29T23:17:13.027Z,13.90
2019-03-29T23:19:43.100Z,16.10
2019-03-29T23:22:13.088Z,12.33
2019-03-29T23:24:43.160Z,15.83
2019-03-29T23:27:13.199Z,13.63
2019-03-29T23:29:43.270Z,13.13
2019-03-29T23:32:13.288Z,14.50
2019-03-29T23:34:43.382Z,13.17
2019-03-29T23:37:13.468Z,15.00
2019-03-29T23:39:43.578Z,19.83
2019-03-29T23:42:13.613Z,16.33
2019-03-29T23:44:43.633Z,14.50
2019-03-29T23:47:13.765Z,13.30
2019-03-29T23:49:43.859Z,17.53
2019-03-29T23:52:14.054Z,15.33
2019-03-29T23:54:44.136Z,15.57
2019-03-29T23:57:14.191Z,14.00
2019-03-29T23:59:44.193Z,14.17
